Time;durP1;ratioP1;P1;durP2;ratioP2;P2;SDS_P1;SDS_P2;PMS_P1;PMS_P2;Temp;Humidity;BMP_temperature;BMP_pressure;BME280_temperature;BME280_humidity;BME280_pressure;Samples;Min_cycle;Max_cycle;Signal;HPM_P1;HPM_P2
2023/02/09 00:01:57;;;;;;;9.83;4.07;;;0.20;94.30;;;;;;5050021;28;20040;-54
2023/02/09 00:04:23;;;;;;;12.47;4.83;;;0.30;94.20;;;;;;5049568;28;20967;-53
2023/02/09 00:06:49;;;;;;;13.27;5.20;;;0.30;94.20;;;;;;5050354;28;20029;-55
2023/02/09 00:09:15;;;;;;;11.20;4.10;;;0.30;94.20;;;;;;5049987;28;20040;-51
2023/02/09 00:14:26;;;;;;;11.17;4.87;;;0.30;94.50;;;;;;5049638;28;20057;-50
2023/02/09 00:16:52;;;;;;;12.63;5.47;;;0.30;94.60;;;;;;5049783;28;20446;-55
2023/02/09 00:19:19;;;;;;;12.27;5.17;;;0.30;94.90;;;;;;5049106;28;20465;-55
2023/02/09 00:21:45;;;;;;;12.17;5.40;;;0.30;94.90;;;;;;5050345;28;20542;-54
2023/02/09 00:24:12;;;;;;;6.67;2.97;;;0.40;94.80;;;;;;5049743;28;20919;-54
2023/02/09 00:26:38;;;;;;;11.87;4.33;;;0.40;94.70;;;;;;5049815;28;20501;-56
2023/02/09 00:29:05;;;;;;;10.90;4.47;;;0.40;94.60;;;;;;5048168;28;20496;-54
2023/02/09 00:31:31;;;;;;;11.27;5.07;;;0.40;94.80;;;;;;5049832;28;20427;-54
2023/02/09 00:33:57;;;;;;;9.60;3.93;;;0.40;94.80;;;;;;5047183;28;20089;-54
2023/02/09 00:36:26;;;;;;;10.87;5.40;;;0.50;94.90;;;;;;5049687;28;20028;-54
2023/02/09 00:38:51;;;;;;;15.10;5.07;;;0.50;95.20;;;;;;5049439;28;20448;-53
2023/02/09 00:42:04;;;;;;;10.20;4.33;;;0.50;95.00;;;;;;5048526;28;20482;-54
2023/02/09 00:44:03;;;;;;;18.07;5.43;;;0.50;95.00;;;;;;5049086;28;20021;-54
2023/02/09 00:46:29;;;;;;;11.07;5.30;;;0.60;95.00;;;;;;5048166;28;20436;-53
2023/02/09 00:48:55;;;;;;;9.60;5.07;;;0.60;95.00;;;;;;5047008;28;20454;-52
2023/02/09 00:51:21;;;;;;;13.27;5.07;;;0.50;95.10;;;;;;5048178;28;20033;-53
2023/02/09 00:53:47;;;;;;;12.27;5.53;;;0.50;95.10;;;;;;5049200;28;20033;-52
2023/02/09 00:56:12;;;;;;;13.00;5.70;;;0.50;95.20;;;;;;5049123;28;20493;-53
2023/02/09 00:58:39;;;;;;;12.63;5.70;;;0.50;95.40;;;;;;5047563;28;20427;-53
2023/02/09 01:01:04;;;;;;;11.50;5.37;;;0.60;95.40;;;;;;5049497;28;20451;-52
2023/02/09 01:03:32;;;;;;;11.63;5.10;;;0.60;95.40;;;;;;5047933;28;20093;-54
2023/02/09 01:05:58;;;;;;;14.00;6.23;;;0.60;95.40;;;;;;5049440;28;20033;-53
2023/02/09 01:08:24;;;;;;;12.10;5.40;;;0.60;95.50;;;;;;5048872;28;20161;-55
2023/02/09 01:10:49;;;;;;;12.13;5.90;;;0.60;95.70;;;;;;5049112;28;20439;-53
2023/02/09 01:13:15;;;;;;;13.73;4.77;;;0.60;95.80;;;;;;5049055;28;20063;-54
2023/02/09 01:15:41;;;;;;;15.17;6.03;;;0.60;96.10;;;;;;5047099;28;20037;-51
2023/02/09 01:18:07;;;;;;;13.67;5.97;;;0.60;95.80;;;;;;5048478;28;20044;-51
2023/02/09 01:20:33;;;;;;;12.60;5.23;;;0.60;95.90;;;;;;5047838;28;20397;-54
2023/02/09 01:22:59;;;;;;;14.23;6.17;;;0.60;95.90;;;;;;5048762;28;20025;-55
2023/02/09 01:25:25;;;;;;;11.80;5.17;;;0.60;96.00;;;;;;5048562;28;20025;-55
2023/02/09 01:27:50;;;;;;;11.73;5.63;;;0.60;96.00;;;;;;5048967;28;20044;-54
2023/02/09 01:30:16;;;;;;;12.90;5.43;;;0.60;96.00;;;;;;5048822;28;20037;-56
2023/02/09 01:32:42;;;;;;;12.33;6.33;;;0.60;96.00;;;;;;5047033;28;20064;-54
2023/02/09 01:35:09;;;;;;;14.60;6.20;;;0.70;96.00;;;;;;5046465;28;20040;-54
2023/02/09 01:37:36;;;;;;;30.57;14.77;;;0.60;96.20;;;;;;5048586;28;20033;-55
2023/02/09 01:40:03;;;;;;;12.53;5.83;;;0.60;96.80;;;;;;5047278;28;20025;-56
2023/02/09 01:42:29;;;;;;;13.80;5.47;;;0.60;96.70;;;;;;5047075;28;20489;-54
2023/02/09 01:45:00;;;;;;;13.13;6.20;;;0.60;96.30;;;;;;5047229;28;20029;-54
2023/02/09 01:47:25;;;;;;;13.07;5.30;;;0.60;96.40;;;;;;5048194;28;20526;-53
2023/02/09 01:49:51;;;;;;;15.60;6.17;;;0.60;96.50;;;;;;5048157;28;20080;-53
2023/02/09 01:52:22;;;;;;;12.60;5.83;;;0.60;96.50;;;;;;5048858;28;20600;-52
2023/02/09 01:54:59;;;;;;;14.87;6.40;;;0.60;96.60;;;;;;5048421;28;20486;-52
2023/02/09 01:57:36;;;;;;;14.90;6.20;;;0.60;96.70;;;;;;5048911;28;20108;-53
2023/02/09 02:00:10;;;;;;;14.43;5.80;;;0.60;96.60;;;;;;5047182;28;20044;-53
2023/02/09 02:02:48;;;;;;;14.23;5.93;;;0.60;96.70;;;;;;5046961;28;20021;-53
2023/02/09 02:05:15;;;;;;;17.40;6.70;;;0.60;96.80;;;;;;5047723;28;20124;-54
2023/02/09 02:08:02;;;;;;;12.27;5.87;;;0.50;96.90;;;;;;5048445;28;20058;-52
2023/02/09 02:10:28;;;;;;;15.10;6.67;;;0.60;96.70;;;;;;5046853;28;21026;-52
2023/02/09 02:12:54;;;;;;;14.27;6.10;;;0.60;96.80;;;;;;5047043;28;20467;-53
2023/02/09 02:15:25;;;;;;;15.03;6.87;;;0.50;96.80;;;;;;5047895;28;20550;-55
2023/02/09 02:18:06;;;;;;;14.67;6.77;;;0.50;97.00;;;;;;5047902;28;20525;-53
2023/02/09 02:21:34;;;;;;;14.23;6.53;;;0.50;97.10;;;;;;5047653;28;20514;-50
2023/02/09 02:24:08;;;;;;;15.60;6.60;;;0.50;97.10;;;;;;5046552;28;20465;-52
2023/02/09 02:26:48;;;;;;;15.90;6.80;;;0.40;97.20;;;;;;5047911;28;20542;-54
2023/02/09 02:29:32;;;;;;;15.13;6.97;;;0.40;97.30;;;;;;5046784;28;20613;-53
2023/02/09 02:32:16;;;;;;;16.70;7.47;;;0.40;97.50;;;;;;5049541;28;20068;-54
2023/02/09 02:34:59;;;;;;;18.30;6.90;;;0.30;97.60;;;;;;5050952;28;20970;-53
2023/02/09 02:37:28;;;;;;;14.20;6.20;;;0.40;97.60;;;;;;5051606;28;20478;-53
2023/02/09 02:40:11;;;;;;;14.43;6.97;;;0.40;97.60;;;;;;5051826;28;20702;-52
2023/02/09 02:42:58;;;;;;;13.07;6.37;;;0.40;97.70;;;;;;5039141;28;20131;-53
2023/02/09 02:45:37;;;;;;;15.20;6.67;;;0.30;97.90;;;;;;5011795;28;20972;-54
2023/02/09 02:48:11;;;;;;;17.70;7.40;;;0.30;97.90;;;;;;5011638;28;20420;-54
2023/02/09 02:50:43;;;;;;;13.50;6.20;;;0.30;97.90;;;;;;5011396;28;20049;-51
2023/02/09 02:53:11;;;;;;;14.67;7.03;;;0.30;97.90;;;;;;5011973;28;20493;-54
2023/02/09 02:55:39;;;;;;;16.33;6.50;;;0.30;98.10;;;;;;5011521;28;20468;-51
2023/02/09 02:58:08;;;;;;;17.77;7.33;;;0.30;98.10;;;;;;5011590;28;20495;-52
2023/02/09 03:00:50;;;;;;;16.60;7.15;;;0.30;98.20;;;;;;5011848;28;20483;-52
2023/02/09 03:03:23;;;;;;;14.73;6.77;;;0.20;98.30;;;;;;5011444;28;20057;-52
2023/02/09 03:05:50;;;;;;;13.80;7.07;;;0.20;98.50;;;;;;5012045;28;20033;-54
2023/02/09 03:08:15;;;;;;;14.33;6.60;;;0.20;98.80;;;;;;5011586;28;20440;-54
2023/02/09 03:10:42;;;;;;;17.17;7.40;;;0.20;98.50;;;;;;5011715;28;20973;-52
2023/02/09 03:13:29;;;;;;;20.07;7.17;;;0.20;98.60;;;;;;5010276;28;20176;-54
2023/02/09 03:16:12;;;;;;;16.03;7.00;;;0.20;98.70;;;;;;5011630;28;20793;-50
2023/02/09 03:18:46;;;;;;;16.10;7.23;;;0.20;98.70;;;;;;5010039;28;20065;-53
2023/02/09 03:21:24;;;;;;;15.03;7.50;;;0.20;98.80;;;;;;5011918;28;20429;-53
2023/02/09 03:24:08;;;;;;;18.70;7.53;;;0.10;98.90;;;;;;5011193;28;20932;-53
2023/02/09 03:27:01;;;;;;;18.87;7.50;;;0.10;99.00;;;;;;5011288;28;20516;-53
2023/02/09 03:29:28;;;;;;;15.60;7.30;;;0.10;99.00;;;;;;5011285;28;20460;-51
2023/02/09 03:31:54;;;;;;;16.70;6.67;;;0.10;99.20;;;;;;5011209;28;20491;-53
2023/02/09 03:34:20;;;;;;;18.67;7.03;;;0.10;99.30;;;;;;5010642;28;20862;-53
2023/02/09 03:36:51;;;;;;;18.90;7.47;;;0.00;99.50;;;;;;5011288;28;20429;-53
2023/02/09 03:39:17;;;;;;;20.47;8.10;;;0.00;99.40;;;;;;5011009;28;20993;-52
2023/02/09 03:41:43;;;;;;;20.30;7.47;;;0.00;99.60;;;;;;5011319;28;20435;-56
2023/02/09 03:44:27;;;;;;;17.33;7.57;;;0.00;99.50;;;;;;5010249;28;20025;-54
2023/02/09 03:46:54;;;;;;;19.63;8.23;;;-0.10;99.50;;;;;;5010705;28;20069;-52
2023/02/09 03:49:20;;;;;;;19.30;8.10;;;-0.10;99.70;;;;;;5010243;28;20553;-53
2023/02/09 03:51:46;;;;;;;16.27;8.03;;;-0.10;99.80;;;;;;5011137;28;20632;-55
2023/02/09 03:54:12;;;;;;;22.40;9.13;;;-0.10;99.80;;;;;;5010693;28;20038;-50
2023/02/09 03:56:38;;;;;;;17.57;7.93;;;-0.10;99.80;;;;;;5061343;22;20041;-53
2023/02/09 03:59:04;;;;;;;17.67;7.97;;;-0.20;99.90;;;;;;5050155;28;20515;-55
2023/02/09 04:01:32;;;;;;;18.13;8.07;;;-0.20;99.90;;;;;;5049055;28;20375;-56
2023/02/09 04:04:00;;;;;;;15.40;7.30;;;-0.20;99.90;;;;;;5049316;28;20518;-56
2023/02/09 04:06:27;;;;;;;18.97;8.33;;;-0.20;99.90;;;;;;5050393;28;20451;-53
2023/02/09 04:08:53;;;;;;;17.53;7.60;;;-0.30;99.90;;;;;;5050171;28;20439;-55
2023/02/09 04:11:18;;;;;;;18.37;7.77;;;-0.30;99.90;;;;;;5050161;28;20448;-55
2023/02/09 04:13:44;;;;;;;18.33;7.57;;;-0.30;99.90;;;;;;5049800;28;20454;-55
2023/02/09 04:16:10;;;;;;;17.47;7.63;;;-0.30;99.90;;;;;;5050179;28;20066;-58
2023/02/09 04:18:35;;;;;;;16.90;7.60;;;-0.30;99.90;;;;;;5048607;28;20092;-56
2023/02/09 04:21:01;;;;;;;17.27;7.70;;;-0.30;99.90;;;;;;5050236;28;20493;-55
2023/02/09 04:23:27;;;;;;;20.50;8.23;;;-0.30;99.90;;;;;;5049612;28;20481;-55
2023/02/09 04:25:52;;;;;;;18.73;6.63;;;-0.30;99.90;;;;;;5049844;28;20029;-57
2023/02/09 04:28:19;;;;;;;18.70;7.67;;;-0.30;99.90;;;;;;5049731;28;20466;-53
2023/02/09 04:30:44;;;;;;;17.90;7.77;;;-0.30;99.90;;;;;;5049805;28;20033;-56
2023/02/09 04:33:10;;;;;;;17.33;7.03;;;-0.40;99.90;;;;;;5049514;28;20451;-55
2023/02/09 04:35:36;;;;;;;19.23;8.40;;;-0.40;99.90;;;;;;5048769;28;20122;-54
2023/02/09 04:38:02;;;;;;;19.47;8.00;;;-0.40;99.90;;;;;;5049494;28;20098;-55
2023/02/09 04:40:28;;;;;;;16.77;7.67;;;-0.40;99.90;;;;;;5049492;28;20447;-53
2023/02/09 04:42:53;;;;;;;15.20;6.47;;;-0.40;99.90;;;;;;5049914;28;20029;-56
2023/02/09 04:45:19;;;;;;;17.73;7.67;;;-0.40;99.90;;;;;;5049326;28;20442;-57
2023/02/09 04:47:45;;;;;;;19.70;7.70;;;-0.40;99.90;;;;;;5049258;28;20025;-55
2023/02/09 04:50:10;;;;;;;17.30;7.17;;;-0.50;99.90;;;;;;5048995;28;20052;-55
2023/02/09 04:52:36;;;;;;;18.40;8.30;;;-0.50;99.90;;;;;;5049528;28;20401;-54
2023/02/09 04:55:02;;;;;;;16.80;7.60;;;-0.50;99.90;;;;;;5048224;28;20561;-53
2023/02/09 05:00:12;;;;;;;18.17;7.90;;;-0.60;99.90;;;;;;5029401;28;20100;-56
2023/02/09 05:02:38;;;;;;;22.23;8.77;;;-0.60;99.90;;;;;;5028826;28;20455;-57
2023/02/09 05:05:04;;;;;;;18.47;7.57;;;-0.60;99.90;;;;;;5028325;28;20482;-55
2023/02/09 05:07:30;;;;;;;17.37;7.57;;;-0.60;99.90;;;;;;5029058;28;20470;-56
2023/02/09 05:09:55;;;;;;;19.13;8.23;;;-0.60;99.90;;;;;;5029097;28;20036;-56
2023/02/09 05:12:21;;;;;;;19.50;8.17;;;-0.60;99.90;;;;;;5034740;28;20064;-57
2023/02/09 05:14:47;;;;;;;20.37;8.87;;;-0.60;99.90;;;;;;5028977;28;20041;-55
2023/02/09 05:17:13;;;;;;;17.60;7.90;;;-0.60;99.90;;;;;;5042973;28;20030;-54
2023/02/09 05:19:39;;;;;;;19.97;8.80;;;-0.60;99.90;;;;;;5048223;28;20462;-53
2023/02/09 05:22:04;;;;;;;18.57;8.00;;;-0.60;99.90;;;;;;5049089;28;20098;-56
2023/02/09 05:24:30;;;;;;;21.20;8.70;;;-0.60;99.90;;;;;;5048833;28;20060;-55
2023/02/09 05:26:56;;;;;;;19.17;8.90;;;-0.60;99.90;;;;;;5049233;28;20086;-55
2023/02/09 05:29:21;;;;;;;21.77;8.73;;;-0.70;99.90;;;;;;5049008;28;20084;-54
2023/02/09 05:31:47;;;;;;;22.33;8.77;;;-0.70;99.90;;;;;;5036843;28;20045;-55
2023/02/09 05:34:13;;;;;;;21.40;8.77;;;-0.80;99.90;;;;;;5028444;28;20029;-55
2023/02/09 05:36:38;;;;;;;18.93;8.53;;;-0.80;99.90;;;;;;5028403;28;20224;-54
2023/02/09 05:39:04;;;;;;;17.93;8.07;;;-0.80;99.90;;;;;;5029056;28;20049;-56
2023/02/09 05:44:14;;;;;;;19.60;8.47;;;-0.80;99.90;;;;;;5028746;28;20044;-56
2023/02/09 05:46:40;;;;;;;24.33;8.90;;;-0.90;99.90;;;;;;5028321;28;20544;-56
2023/02/09 05:49:05;;;;;;;20.43;8.33;;;-0.90;99.90;;;;;;5028087;28;20338;-56
2023/02/09 05:51:31;;;;;;;22.20;8.70;;;-0.90;99.90;;;;;;5029115;28;20034;-56
2023/02/09 05:53:57;;;;;;;19.77;8.40;;;-0.90;99.90;;;;;;5029068;28;20394;-55
2023/02/09 05:56:23;;;;;;;21.10;9.20;;;-0.90;99.90;;;;;;5028813;28;20402;-54
2023/02/09 05:58:48;;;;;;;21.30;8.93;;;-0.90;99.90;;;;;;5031111;28;20029;-53
2023/02/09 06:01:14;;;;;;;20.77;8.57;;;-0.90;99.90;;;;;;5037622;28;20056;-55
2023/02/09 06:03:40;;;;;;;21.67;8.93;;;-0.90;99.90;;;;;;5037867;28;20079;-54
2023/02/09 06:06:05;;;;;;;23.27;9.13;;;-0.80;99.90;;;;;;5038651;28;20025;-52
2023/02/09 06:08:31;;;;;;;20.67;9.23;;;-0.90;99.90;;;;;;5040598;28;20460;-52
2023/02/09 06:10:57;;;;;;;21.10;8.37;;;-0.90;99.90;;;;;;5035657;28;20041;-50
2023/02/09 06:13:22;;;;;;;22.23;9.63;;;-0.80;99.90;;;;;;5032345;28;20025;-56
2023/02/09 06:15:48;;;;;;;20.57;9.13;;;-0.80;99.90;;;;;;5032897;28;20482;-55
2023/02/09 06:18:14;;;;;;;24.10;10.17;;;-0.80;99.90;;;;;;5032173;28;20080;-55
2023/02/09 06:20:39;;;;;;;24.07;10.17;;;-0.80;99.90;;;;;;5031892;28;20458;-54
2023/02/09 06:23:05;;;;;;;21.40;9.93;;;-0.90;99.90;;;;;;5032673;28;20091;-54
2023/02/09 06:25:31;;;;;;;27.90;9.47;;;-0.90;99.90;;;;;;5032711;28;20036;-53
2023/02/09 06:27:56;;;;;;;21.77;9.90;;;-0.80;99.90;;;;;;5032551;28;20422;-55
2023/02/09 06:30:22;;;;;;;22.10;7.57;;;-0.80;99.90;;;;;;5032523;28;20037;-54
2023/02/09 06:32:48;;;;;;;23.00;9.57;;;-0.80;99.90;;;;;;5032363;28;20370;-56
2023/02/09 06:35:13;;;;;;;22.03;9.43;;;-0.80;99.90;;;;;;5031289;28;20029;-54
2023/02/09 06:37:39;;;;;;;28.97;10.57;;;-0.80;99.90;;;;;;5031691;28;20034;-52
2023/02/09 06:40:05;;;;;;;22.57;10.00;;;-0.80;99.90;;;;;;5032052;28;20026;-54
2023/02/09 06:42:42;;;;;;;22.03;10.80;;;-0.90;99.90;;;;;;5032062;28;20143;-54
2023/02/09 06:45:13;;;;;;;20.77;9.47;;;-0.90;99.90;;;;;;5031815;28;20017;-51
2023/02/09 06:47:40;;;;;;;19.60;9.07;;;-0.90;99.90;;;;;;5031548;28;20458;-55
2023/02/09 06:50:07;;;;;;;23.87;9.90;;;-0.90;99.90;;;;;;5031625;28;20517;-55
2023/02/09 06:52:33;;;;;;;23.43;11.10;;;-0.90;99.90;;;;;;5032309;28;20451;-54
2023/02/09 06:54:59;;;;;;;21.93;9.07;;;-0.90;99.90;;;;;;5031827;28;20506;-54
2023/02/09 06:57:24;;;;;;;21.80;9.60;;;-0.90;99.90;;;;;;5031931;28;20493;-55
2023/02/09 06:59:50;;;;;;;24.90;10.93;;;-0.80;99.90;;;;;;5032025;28;20116;-54
2023/02/09 07:02:16;;;;;;;21.00;9.63;;;-0.80;99.90;;;;;;5031516;28;20063;-57
2023/02/09 07:04:41;;;;;;;22.23;9.63;;;-0.80;99.90;;;;;;5030993;28;20026;-54
2023/02/09 07:07:07;;;;;;;24.40;9.80;;;-0.80;99.90;;;;;;5031646;28;20518;-54
2023/02/09 07:09:33;;;;;;;22.43;10.27;;;-0.80;99.90;;;;;;5031800;28;20107;-56
2023/02/09 07:11:58;;;;;;;22.33;9.23;;;-0.80;99.90;;;;;;5031646;28;20312;-55
2023/02/09 07:14:24;;;;;;;22.10;10.27;;;-0.80;99.90;;;;;;5031503;28;20037;-54
2023/02/09 07:16:50;;;;;;;19.23;9.67;;;-0.70;99.90;;;;;;5030626;28;20045;-57
2023/02/09 07:19:16;;;;;;;21.13;9.70;;;-0.70;99.90;;;;;;5010024;28;20103;-54
2023/02/09 07:21:41;;;;;;;26.27;10.13;;;-0.70;99.90;;;;;;5029618;28;20034;-56
2023/02/09 07:24:07;;;;;;;21.93;9.87;;;-0.70;99.90;;;;;;5031009;28;20130;-55
2023/02/09 07:26:33;;;;;;;24.77;10.53;;;-0.70;99.90;;;;;;5030919;28;20029;-55
2023/02/09 07:28:59;;;;;;;22.87;9.97;;;-0.60;99.90;;;;;;5030249;28;20029;-54
2023/02/09 07:31:25;;;;;;;23.73;9.53;;;-0.60;99.90;;;;;;5031484;28;20037;-55
2023/02/09 07:33:52;;;;;;;23.63;10.23;;;-0.60;99.90;;;;;;5029978;28;20594;-55
2023/02/09 07:36:18;;;;;;;22.17;10.13;;;-0.60;99.90;;;;;;5031127;28;20456;-54
2023/02/09 07:38:44;;;;;;;31.97;13.00;;;-0.50;99.90;;;;;;5030967;28;20460;-47
2023/02/09 07:41:16;;;;;;;27.23;11.33;;;-0.50;99.90;;;;;;5031446;28;20025;-50
2023/02/09 07:43:42;;;;;;;28.03;11.10;;;-0.30;99.90;;;;;;5030751;28;20837;-49
2023/02/09 07:46:08;;;;;;;26.83;10.10;;;-0.40;99.90;;;;;;5031298;28;20505;-47
2023/02/09 07:48:34;;;;;;;21.73;10.30;;;-0.30;99.90;;;;;;5029866;28;20034;-49
2023/02/09 07:51:01;;;;;;;23.17;9.80;;;-0.30;99.90;;;;;;5031118;28;20439;-47
2023/02/09 07:53:27;;;;;;;26.10;10.00;;;-0.30;99.90;;;;;;5030476;28;20788;-53
2023/02/09 07:55:53;;;;;;;23.13;9.83;;;-0.20;99.90;;;;;;5030849;28;20448;-51
2023/02/09 07:58:20;;;;;;;34.23;11.43;;;-0.20;99.90;;;;;;5030408;28;21069;-51
2023/02/09 08:00:50;;;;;;;26.57;10.73;;;-0.10;99.90;;;;;;5030573;28;20378;-53
2023/02/09 08:03:19;;;;;;;26.97;10.60;;;0.00;99.90;;;;;;5030272;28;20440;-60
2023/02/09 08:06:23;;;;;;;23.08;10.48;;;0.10;99.90;;;;;;5029947;28;20494;-50
2023/02/09 08:08:51;;;;;;;25.87;11.10;;;0.20;99.90;;;;;;4999705;28;20048;-50
2023/02/09 08:11:23;;;;;;;24.93;10.57;;;0.30;99.90;;;;;;5012843;28;20958;-55
2023/02/09 08:13:50;;;;;;;24.50;10.87;;;0.40;99.90;;;;;;5030061;28;20542;-55
2023/02/09 08:16:18;;;;;;;24.40;10.67;;;0.50;99.90;;;;;;5030457;28;20033;-53
2023/02/09 08:18:49;;;;;;;21.23;10.03;;;0.60;99.90;;;;;;5029109;28;20083;-55
2023/02/09 08:21:16;;;;;;;23.13;10.47;;;0.60;99.90;;;;;;5030245;28;20494;-53
2023/02/09 08:23:44;;;;;;;23.47;10.60;;;0.70;99.90;;;;;;5029923;28;20025;-53
2023/02/09 08:26:12;;;;;;;24.50;11.23;;;0.70;99.90;;;;;;5030377;28;20386;-55
2023/02/09 08:28:43;;;;;;;25.00;10.60;;;0.90;99.90;;;;;;5029170;28;20156;-54
2023/02/09 08:31:12;;;;;;;24.40;11.73;;;0.90;99.90;;;;;;5029285;28;20071;-53
2023/02/09 08:33:38;;;;;;;23.48;11.52;;;1.00;99.90;;;;;;5028281;28;20046;-51
2023/02/09 08:36:05;;;;;;;24.10;10.90;;;1.00;99.90;;;;;;5029434;28;20774;-54
2023/02/09 08:38:30;;;;;;;23.70;10.77;;;1.10;99.90;;;;;;5029062;28;20040;-54
2023/02/09 08:40:56;;;;;;;27.00;11.50;;;1.10;99.90;;;;;;5029869;28;20394;-53
2023/02/09 08:43:22;;;;;;;23.57;11.23;;;1.20;99.50;;;;;;5033354;28;20022;-54
2023/02/09 08:45:47;;;;;;;30.60;12.20;;;1.20;99.90;;;;;;5046553;28;20493;-54
2023/02/09 08:48:13;;;;;;;26.23;11.53;;;1.40;99.60;;;;;;5048436;28;20081;-55
2023/02/09 08:50:39;;;;;;;22.93;10.83;;;1.50;99.30;;;;;;5048651;28;20036;-53
2023/02/09 08:53:05;;;;;;;21.93;10.77;;;1.70;98.90;;;;;;5049372;28;20033;-50
2023/02/09 08:55:33;;;;;;;24.70;10.80;;;1.80;98.60;;;;;;5048989;28;20043;-54
2023/02/09 08:57:59;;;;;;;23.10;10.97;;;1.90;99.00;;;;;;5048714;28;20036;-53
2023/02/09 09:00:25;;;;;;;23.77;10.70;;;2.10;98.60;;;;;;5049409;28;20028;-55
2023/02/09 09:02:51;;;;;;;26.23;11.20;;;2.40;97.90;;;;;;5048975;28;20021;-52
2023/02/09 09:05:17;;;;;;;23.17;11.17;;;2.50;97.20;;;;;;5048191;28;20362;-54
2023/02/09 09:07:43;;;;;;;24.80;11.97;;;2.50;97.70;;;;;;5048292;28;20104;-50
2023/02/09 09:10:10;;;;;;;22.80;11.00;;;2.80;96.90;;;;;;5037512;28;20021;-51
2023/02/09 09:12:36;;;;;;;23.00;11.73;;;3.10;96.30;;;;;;5029166;28;20021;-53
2023/02/09 09:15:02;;;;;;;27.67;11.00;;;3.20;96.30;;;;;;5011016;28;20029;-53
2023/02/09 09:17:29;;;;;;;22.80;10.97;;;3.20;96.40;;;;;;5027894;28;20025;-52
2023/02/09 09:19:55;;;;;;;22.97;10.10;;;3.30;95.40;;;;;;5028092;28;20075;-53
2023/02/09 09:22:22;;;;;;;22.93;11.17;;;3.30;95.10;;;;;;5029024;28;20416;-51
2023/02/09 09:24:48;;;;;;;25.97;10.83;;;3.30;95.30;;;;;;5010489;28;20124;-52
2023/02/09 09:27:14;;;;;;;24.17;11.13;;;3.40;95.00;;;;;;5028336;28;20113;-53
2023/02/09 09:29:40;;;;;;;23.90;10.90;;;3.50;94.90;;;;;;5028636;28;20569;-52
2023/02/09 09:32:06;;;;;;;22.73;11.57;;;3.50;94.90;;;;;;5027930;28;20112;-50
2023/02/09 09:34:33;;;;;;;21.60;11.13;;;3.90;94.40;;;;;;5027929;28;20379;-52
2023/02/09 09:36:58;;;;;;;20.73;10.77;;;4.10;93.80;;;;;;5028266;28;20041;-51
2023/02/09 09:39:25;;;;;;;22.47;11.43;;;4.50;93.20;;;;;;5028713;28;20087;-52
2023/02/09 09:41:57;;;;;;;22.90;11.50;;;4.80;92.30;;;;;;5028307;28;20034;-55
2023/02/09 09:44:41;;;;;;;23.70;11.10;;;4.90;91.80;;;;;;5028263;28;20030;-53
2023/02/09 09:47:13;;;;;;;23.73;11.37;;;5.20;91.10;;;;;;5027869;28;20033;-52
2023/02/09 09:49:39;;;;;;;23.60;12.03;;;5.50;90.50;;;;;;5027850;28;20033;-54
2023/02/09 09:52:19;;;;;;;21.33;11.17;;;5.60;89.60;;;;;;5028706;28;20033;-51
2023/02/09 09:54:45;;;;;;;22.97;11.50;;;5.90;88.60;;;;;;5043193;23;20040;-51
2023/02/09 09:57:26;;;;;;;20.00;11.37;;;6.00;88.60;;;;;;5044777;28;20132;-52
2023/02/09 09:59:53;;;;;;;22.77;11.23;;;6.00;87.20;;;;;;5048092;28;20465;-50
2023/02/09 10:02:30;;;;;;;22.60;11.27;;;6.10;87.00;;;;;;5047793;28;20029;-48
2023/02/09 10:05:21;;;;;;;27.23;15.10;;;6.30;85.30;;;;;;5047316;28;20043;-48
2023/02/09 10:08:14;;;;;;;28.27;15.77;;;6.10;86.30;;;;;;5047857;28;20021;-50
2023/02/09 10:10:53;;;;;;;18.63;10.80;;;6.20;86.60;;;;;;5048248;28;20059;-51
2023/02/09 10:13:24;;;;;;;20.05;11.57;;;6.50;84.90;;;;;;5048264;28;20025;-50
2023/02/09 10:15:55;;;;;;;30.40;13.53;;;6.90;83.10;;;;;;5043792;28;20025;-49
2023/02/09 10:18:24;;;;;;;25.03;12.40;;;7.30;80.60;;;;;;5038175;28;20030;-49
2023/02/09 10:21:05;;;;;;;22.00;11.60;;;7.40;80.70;;;;;;5037085;28;20049;-52
2023/02/09 10:24:03;;;;;;;21.83;11.10;;;7.80;79.70;;;;;;5037162;28;20030;-53
2023/02/09 10:26:33;;;;;;;21.77;11.13;;;7.70;76.80;;;;;;5036560;28;20018;-52
2023/02/09 10:29:24;;;;;;;18.60;11.07;;;8.00;75.70;;;;;;5037210;28;20071;-48
2023/02/09 10:32:14;;;;;;;19.20;10.93;;;7.90;75.80;;;;;;5030887;28;20144;-54
2023/02/09 10:34:45;;;;;;;22.67;12.03;;;7.60;76.80;;;;;;5021965;28;20038;-50
2023/02/09 10:37:34;;;;;;;21.53;11.90;;;7.50;75.40;;;;;;5028015;28;20113;-53
2023/02/09 10:40:16;;;;;;;20.00;10.20;;;7.50;76.20;;;;;;5028225;28;20029;-52
2023/02/09 10:43:00;;;;;;;23.43;11.80;;;7.60;75.20;;;;;;5028368;28;20022;-49
2023/02/09 10:45:41;;;;;;;19.40;11.10;;;7.50;76.30;;;;;;5027981;28;20388;-48
2023/02/09 10:48:12;;;;;;;19.17;11.37;;;7.60;74.90;;;;;;5027364;28;20179;-52
2023/02/09 10:51:12;;;;;;;22.03;11.27;;;7.60;74.50;;;;;;5027379;28;20034;-51
2023/02/09 10:53:52;;;;;;;18.30;10.37;;;7.50;74.80;;;;;;5021037;28;20041;-52
2023/02/09 10:56:27;;;;;;;19.93;11.73;;;7.60;73.50;;;;;;5031188;28;20038;-50
2023/02/09 10:58:59;;;;;;;20.60;10.30;;;7.80;72.30;;;;;;5031110;28;20037;-52
2023/02/09 11:01:31;;;;;;;34.17;18.50;;;7.60;72.40;;;;;;5031325;28;20025;-51
2023/02/09 11:04:06;;;;;;;19.23;10.73;;;7.40;74.20;;;;;;5030274;28;20030;-53
2023/02/09 11:06:55;;;;;;;22.40;11.03;;;7.50;74.00;;;;;;5030785;28;20025;-52
2023/02/09 11:09:28;;;;;;;19.02;11.32;;;7.90;72.10;;;;;;5031029;28;20080;-50
2023/02/09 11:11:55;;;;;;;22.83;11.40;;;7.90;71.70;;;;;;5031612;28;20069;-52
2023/02/09 11:14:21;;;;;;;23.67;10.97;;;7.60;72.80;;;;;;5042177;28;20025;-51
2023/02/09 11:17:03;;;;;;;20.17;11.27;;;7.70;71.70;;;;;;5030392;28;20633;-53
2023/02/09 11:19:45;;;;;;;23.33;11.37;;;7.40;72.90;;;;;;5030676;28;20411;-50
2023/02/09 11:22:17;;;;;;;20.20;11.80;;;7.60;73.60;;;;;;5031011;28;20056;-53
2023/02/09 11:24:58;;;;;;;19.70;11.40;;;7.70;73.60;;;;;;5030757;28;20557;-49
2023/02/09 11:27:34;;;;;;;20.03;12.03;;;8.10;72.80;;;;;;5030591;28;20054;-50
2023/02/09 11:30:00;;;;;;;20.27;12.10;;;8.40;72.10;;;;;;5030902;28;20091;-52
2023/02/09 11:32:45;;;;;;;23.03;11.33;;;8.50;71.10;;;;;;5030443;28;20501;-51
2023/02/09 11:35:17;;;;;;;20.77;11.83;;;8.60;70.70;;;;;;5029693;28;20033;-52
2023/02/09 11:37:52;;;;;;;19.80;11.63;;;8.20;72.00;;;;;;5030619;28;20394;-53
2023/02/09 11:40:31;;;;;;;19.23;11.30;;;8.40;70.90;;;;;;5030997;28;20115;-53
2023/02/09 11:43:03;;;;;;;;;;;8.30;71.10;;;;;;5031397;28;20018;-52
2023/02/09 11:45:47;;;;;;;19.53;11.23;;;8.30;70.90;;;;;;5029966;28;20004;-55
2023/02/09 11:48:31;;;;;;;23.67;11.77;;;8.40;70.80;;;;;;5030006;28;20038;-52
2023/02/09 11:51:03;;;;;;;18.83;10.87;;;8.20;71.20;;;;;;5030864;28;20033;-51
2023/02/09 11:53:52;;;;;;;21.60;11.50;;;8.50;70.70;;;;;;5030244;28;20025;-54
2023/02/09 11:56:23;;;;;;;22.90;12.43;;;8.50;70.30;;;;;;5030603;28;20029;-43
2023/02/09 11:58:57;;;;;;;20.13;12.07;;;8.30;71.40;;;;;;5030531;28;20117;-43
2023/02/09 12:01:29;;;;;;;19.27;11.40;;;8.00;71.50;;;;;;5030245;28;20128;-44
2023/02/09 12:04:35;;;;;;;27.07;12.20;;;7.90;71.30;;;;;;5028611;28;20508;-42
2023/02/09 12:07:09;;;;;;;19.77;11.27;;;7.30;73.30;;;;;;5009225;28;20041;-42
2023/02/09 12:09:40;;;;;;;22.77;11.97;;;7.20;74.50;;;;;;5050399;28;20070;-50
2023/02/09 12:12:29;;;;;;;22.60;11.50;;;7.40;74.70;;;;;;5049797;28;20033;-47
2023/02/09 12:15:07;;;;;;;19.97;11.20;;;7.50;74.10;;;;;;5049634;28;20041;-51
2023/02/09 12:17:45;;;;;;;20.45;11.73;;;7.90;73.30;;;;;;5049047;28;20068;-49
2023/02/09 12:20:29;;;;;;;21.67;11.30;;;8.30;72.00;;;;;;5049192;28;20035;-53
2023/02/09 12:23:15;;;;;;;20.20;11.13;;;8.70;70.80;;;;;;5049562;28;20465;-51
2023/02/09 12:26:05;;;;;;;21.13;11.73;;;8.50;72.40;;;;;;5049381;28;20029;-49
2023/02/09 12:28:31;;;;;;;20.47;11.80;;;8.30;72.70;;;;;;5048978;28;20036;-53
2023/02/09 12:30:56;;;;;;;20.00;11.07;;;8.00;72.40;;;;;;5049616;28;20033;-54
2023/02/09 12:33:22;;;;;;;18.63;10.87;;;8.10;73.10;;;;;;5048872;28;20063;-50
2023/02/09 12:36:07;;;;;;;23.20;10.87;;;8.10;72.40;;;;;;5048880;28;20028;-51
2023/02/09 12:38:51;;;;;;;18.57;10.20;;;8.40;72.50;;;;;;5048529;28;20032;-49
2023/02/09 12:41:20;;;;;;;20.33;11.30;;;8.40;72.40;;;;;;5049867;28;20094;-48
2023/02/09 12:43:46;;;;;;;;;;;8.60;72.20;;;;;;5049565;28;20025;-53
2023/02/09 12:46:19;;;;;;;17.57;10.03;;;9.10;69.40;;;;;;5049329;28;19991;-50
2023/02/09 12:49:00;;;;;;;19.93;11.07;;;9.80;68.80;;;;;;5048156;28;20116;-52
2023/02/09 12:51:47;;;;;;;17.27;10.50;;;9.80;69.50;;;;;;5049594;28;20029;-51
2023/02/09 12:54:40;;;;;;;20.67;10.77;;;10.40;66.30;;;;;;5048855;28;20053;-54
2023/02/09 12:57:15;;;;;;;19.35;11.05;;;11.00;64.30;;;;;;5036964;28;20072;-51
2023/02/09 12:59:52;;;;;;;19.40;11.00;;;11.10;63.50;;;;;;5030371;28;20095;-51
2023/02/09 13:02:53;;;;;;;19.85;10.70;;;10.80;64.40;;;;;;5028626;28;20390;-53
2023/02/09 13:05:28;;;;;;;19.35;11.18;;;10.40;64.50;;;;;;5028474;28;20029;-53
2023/02/09 13:08:20;;;;;;;20.80;11.45;;;10.00;66.10;;;;;;5028649;28;20025;-52